createdAt,value
2023-05-15T00:00:12.426Z,42.58
2023-05-15T00:03:01.326Z,42.99
2023-05-15T00:05:30.529Z,42.91
2023-05-15T00:08:00.051Z,43.33
2023-05-15T00:10:30.502Z,42.97
2023-05-15T00:12:59.279Z,42.93
2023-05-15T00:15:28.287Z,43.34
2023-05-15T00:17:57.051Z,42.77
2023-05-15T00:20:26.160Z,42.95
2023-05-15T00:22:55.029Z,43.07
2023-05-15T00:25:24.120Z,43.00
2023-05-15T00:27:54.229Z,42.95
2023-05-15T00:30:23.297Z,42.80
2023-05-15T00:32:52.241Z,42.81
2023-05-15T00:35:21.263Z,42.76
2023-05-15T00:37:49.969Z,43.30
2023-05-15T00:40:23.220Z,43.33
2023-05-15T00:42:54.611Z,42.67
2023-05-15T00:45:27.722Z,43.03
2023-05-15T00:47:58.815Z,43.02
2023-05-15T00:50:28.390Z,43.51
2023-05-15T00:52:57.375Z,43.15
2023-05-15T00:55:29.679Z,43.34
2023-05-15T00:58:03.443Z,43.50
2023-05-15T01:00:35.353Z,43.81
2023-05-15T01:03:07.179Z,44.05
2023-05-15T01:05:37.096Z,43.67
2023-05-15T01:08:17.853Z,44.31
2023-05-15T01:10:49.644Z,44.58
2023-05-15T01:13:22.918Z,44.77
2023-05-15T01:15:52.143Z,44.57
2023-05-15T01:18:22.165Z,44.44
2023-05-15T01:21:28.558Z,44.77
2023-05-15T01:24:21.899Z,45.17
2023-05-15T01:27:20.185Z,45.16
2023-05-15T01:30:01.295Z,45.74
2023-05-15T01:32:42.949Z,44.61
2023-05-15T01:35:21.151Z,44.98
2023-05-15T01:37:59.958Z,45.09
2023-05-15T01:40:31.015Z,45.08
2023-05-15T01:43:10.232Z,45.33
2023-05-15T01:45:42.228Z,45.27
2023-05-15T01:48:15.094Z,45.12
2023-05-15T01:50:46.896Z,44.90
2023-05-15T01:53:19.081Z,44.93
2023-05-15T01:55:50.664Z,44.93
2023-05-15T01:58:22.222Z,44.91
2023-05-15T02:00:52.251Z,44.63
2023-05-15T02:03:21.793Z,44.66
2023-05-15T02:05:53.317Z,44.74
2023-05-15T02:08:25.774Z,44.46
2023-05-15T02:10:55.866Z,44.54
2023-05-15T02:13:27.959Z,44.64
2023-05-15T02:15:56.675Z,44.58
2023-05-15T02:18:26.109Z,44.54
2023-05-15T02:20:55.009Z,44.27
2023-05-15T02:23:23.924Z,44.60
2023-05-15T02:26:27.519Z,44.66
2023-05-15T02:29:14.786Z,45.01
2023-05-15T02:31:57.121Z,44.92
2023-05-15T02:34:39.009Z,44.75
2023-05-15T02:37:15.857Z,45.10
2023-05-15T02:39:47.450Z,45.07
2023-05-15T02:42:16.978Z,45.05
2023-05-15T02:44:50.083Z,45.14
2023-05-15T02:47:20.587Z,45.38
2023-05-15T02:49:50.282Z,45.30
2023-05-15T02:52:19.437Z,45.92
2023-05-15T02:54:48.622Z,45.58
2023-05-15T02:57:17.345Z,45.60
2023-05-15T02:59:47.912Z,45.45
2023-05-15T03:02:16.563Z,45.71
2023-05-15T03:04:47.066Z,45.47
2023-05-15T03:07:16.831Z,45.46
2023-05-15T03:09:45.805Z,46.32
2023-05-15T03:12:14.546Z,45.62
2023-05-15T03:14:43.523Z,45.93
2023-05-15T03:17:13.573Z,45.82
2023-05-15T03:19:42.657Z,46.57
2023-05-15T03:22:11.415Z,46.25
2023-05-15T03:24:40.385Z,46.13
2023-05-15T03:27:09.029Z,46.50
2023-05-15T03:29:38.216Z,46.02
2023-05-15T03:32:07.218Z,46.55
2023-05-15T03:34:39.141Z,46.68
2023-05-15T03:37:09.578Z,46.38
2023-05-15T03:39:38.538Z,46.18
2023-05-15T03:42:08.211Z,45.87
2023-05-15T03:44:37.228Z,46.25
2023-05-15T03:47:06.392Z,46.44
2023-05-15T03:49:35.316Z,45.70
2023-05-15T03:52:08.222Z,46.15
2023-05-15T03:54:37.509Z,46.60
2023-05-15T03:57:06.844Z,46.48
2023-05-15T03:59:35.834Z,46.77
2023-05-15T04:02:05.690Z,46.87
2023-05-15T04:04:35.457Z,47.47
2023-05-15T04:07:04.288Z,48.12
2023-05-15T04:09:34.578Z,48.38
2023-05-15T04:12:03.262Z,49.70
2023-05-15T04:14:32.222Z,49.38
2023-05-15T04:17:00.998Z,49.57
2023-05-15T04:19:29.997Z,48.72
2023-05-15T04:21:58.602Z,48.22
2023-05-15T04:24:27.522Z,49.09
2023-05-15T04:26:57.650Z,49.25
2023-05-15T04:29:26.739Z,48.36
2023-05-15T04:31:55.635Z,48.53
2023-05-15T04:34:24.827Z,48.34
2023-05-15T04:36:53.527Z,47.84
2023-05-15T04:39:22.525Z,48.04
2023-05-15T04:41:51.272Z,48.10
2023-05-15T04:44:21.589Z,47.71
2023-05-15T04:46:50.308Z,47.57
2023-05-15T04:49:19.177Z,48.42
2023-05-15T04:51:47.886Z,49.09
2023-05-15T04:54:16.864Z,49.02
2023-05-15T04:56:47.187Z,49.35
2023-05-15T04:59:16.635Z,49.88
2023-05-15T05:01:46.793Z,49.98
2023-05-15T05:04:19.412Z,50.25
2023-05-15T05:06:48.554Z,50.55
2023-05-15T05:09:19.295Z,51.23
2023-05-15T05:11:48.965Z,51.67
2023-05-15T05:14:18.087Z,51.54
2023-05-15T05:16:48.123Z,50.81
2023-05-15T05:19:17.131Z,51.42
2023-05-15T05:21:45.793Z,51.46
2023-05-15T05:24:14.792Z,52.34
2023-05-15T05:26:45.728Z,51.66
2023-05-15T05:29:14.678Z,51.88
2023-05-15T05:31:43.597Z,52.23
2023-05-15T05:34:13.943Z,52.86
2023-05-15T05:36:42.692Z,53.03
2023-05-15T05:39:11.626Z,52.89
2023-05-15T05:41:40.358Z,53.26
2023-05-15T05:44:09.792Z,53.47
2023-05-15T05:46:38.583Z,54.08
2023-05-15T05:49:07.629Z,55.08
2023-05-15T05:51:38.247Z,55.38
2023-05-15T05:54:07.366Z,55.57
2023-05-15T05:56:36.073Z,56.29
2023-05-15T05:59:06.526Z,55.83
2023-05-15T06:01:35.320Z,55.97
2023-05-15T06:04:04.479Z,55.46
2023-05-15T06:06:33.757Z,56.54
2023-05-15T06:09:05.662Z,57.41
2023-05-15T06:11:34.661Z,57.30
2023-05-15T06:14:03.663Z,58.43
2023-05-15T06:16:32.321Z,59.54
2023-05-15T06:19:01.321Z,61.28
2023-05-15T06:21:29.991Z,61.66
2023-05-15T06:23:59.296Z,63.77
2023-05-15T06:26:29.409Z,65.11
2023-05-15T06:28:58.318Z,65.89
2023-05-15T06:31:27.319Z,68.16
2023-05-15T06:33:56.290Z,70.99
2023-05-15T06:36:24.906Z,72.65
2023-05-15T06:38:53.880Z,73.47
2023-05-15T06:41:22.706Z,75.44
2023-05-15T06:43:53.465Z,76.76
2023-05-15T06:46:22.512Z,78.33
2023-05-15T06:48:51.573Z,80.01
2023-05-15T06:51:20.358Z,80.71
2023-05-15T06:53:49.366Z,82.35
2023-05-15T06:56:18.070Z,84.20
2023-05-15T06:58:47.177Z,84.62
2023-05-15T07:01:17.234Z,86.30
2023-05-15T07:03:46.209Z,86.45
2023-05-15T07:06:14.879Z,87.32
2023-05-15T07:08:43.904Z,88.11
2023-05-15T07:11:12.688Z,88.66
2023-05-15T07:13:41.648Z,89.47
2023-05-15T07:16:11.322Z,89.64
2023-05-15T07:18:41.725Z,90.97
2023-05-15T07:21:10.568Z,92.60
2023-05-15T07:23:39.564Z,92.73
2023-05-15T07:26:13.983Z,94.16
2023-05-15T07:28:45.710Z,95.23
2023-05-15T07:31:14.422Z,95.81
2023-05-15T07:33:44.738Z,96.44
2023-05-15T07:36:13.411Z,96.44
2023-05-15T07:38:42.328Z,97.31
2023-05-15T07:41:11.070Z,97.36
2023-05-15T07:43:40.101Z,98.35
2023-05-15T07:46:08.880Z,97.34
2023-05-15T07:48:37.912Z,98.38
2023-05-15T07:51:08.111Z,98.85
2023-05-15T07:53:37.104Z,98.02
2023-05-15T07:56:06.486Z,98.49
2023-05-15T07:58:38.393Z,99.91
2023-05-15T08:01:07.609Z,97.86
2023-05-15T08:03:37.301Z,99.12
2023-05-15T08:06:08.492Z,98.14
2023-05-15T08:08:37.620Z,97.87
2023-05-15T08:11:06.471Z,98.67
2023-05-15T08:13:35.551Z,98.57
2023-05-15T08:16:04.989Z,98.79
2023-05-15T08:18:34.405Z,97.93
2023-05-15T08:21:04.738Z,97.33
2023-05-15T08:23:35.416Z,95.55
2023-05-15T08:26:04.176Z,96.26
2023-05-15T08:28:33.675Z,93.78
2023-05-15T08:31:02.481Z,94.09
2023-05-15T08:33:31.598Z,92.71
2023-05-15T08:36:00.372Z,93.10
2023-05-15T08:38:29.381Z,92.56
2023-05-15T08:41:07.437Z,93.83
2023-05-15T08:43:39.278Z,90.87
2023-05-15T08:46:08.575Z,90.86
2023-05-15T08:48:43.160Z,91.48
2023-05-15T08:51:12.948Z,92.18
2023-05-15T08:53:42.223Z,90.91
2023-05-15T08:56:12.758Z,92.49
2023-05-15T08:58:41.947Z,94.13
2023-05-15T09:01:13.333Z,94.04
2023-05-15T09:03:42.872Z,95.31
2023-05-15T09:06:12.168Z,96.64
2023-05-15T09:08:44.067Z,98.17
2023-05-15T09:11:16.454Z,98.97
2023-05-15T09:13:45.587Z,100.00
2023-05-15T09:16:14.332Z,100.00
2023-05-15T09:18:45.024Z,100.00
2023-05-15T09:21:32.445Z,100.00
2023-05-15T09:24:21.745Z,100.00
2023-05-15T09:27:04.101Z,100.00
2023-05-15T09:29:35.417Z,100.00
2023-05-15T09:32:05.576Z,99.73
2023-05-15T09:34:37.448Z,99.32
2023-05-15T09:37:08.549Z,100.00
2023-05-15T09:39:43.586Z,100.00
2023-05-15T09:42:16.131Z,100.00
2023-05-15T09:44:47.160Z,100.00
2023-05-15T09:47:17.634Z,100.00
2023-05-15T09:49:47.624Z,100.00
2023-05-15T09:52:17.543Z,100.00
2023-05-15T09:54:50.214Z,100.00
2023-05-15T09:57:24.345Z,100.00
2023-05-15T09:59:53.381Z,100.00
2023-05-15T10:02:28.073Z,100.00
2023-05-15T10:04:58.162Z,100.00
2023-05-15T10:07:30.819Z,100.00
2023-05-15T10:10:00.241Z,100.00
2023-05-15T10:12:32.486Z,100.00
2023-05-15T10:15:05.740Z,100.00
2023-05-15T10:17:37.005Z,100.00
2023-05-15T10:20:09.437Z,100.00
2023-05-15T10:22:42.411Z,100.00
2023-05-15T10:25:35.178Z,100.00
2023-05-15T10:28:09.706Z,100.00
2023-05-15T10:30:39.778Z,100.00
2023-05-15T10:33:09.934Z,100.00
2023-05-15T10:35:41.130Z,100.00
2023-05-15T10:38:12.521Z,100.00
2023-05-15T10:40:43.313Z,100.00
2023-05-15T10:43:15.970Z,100.00
2023-05-15T10:45:45.789Z,100.00
2023-05-15T10:48:16.976Z,100.00
2023-05-15T10:50:46.182Z,100.00
2023-05-15T10:53:16.192Z,100.00
2023-05-15T10:55:46.257Z,100.00
2023-05-15T10:58:16.341Z,100.00
2023-05-15T11:00:46.699Z,100.00
2023-05-15T11:03:16.566Z,100.00
2023-05-15T11:06:11.560Z,100.00
2023-05-15T11:08:41.677Z,100.00
2023-05-15T11:11:10.751Z,100.00
2023-05-15T11:14:15.385Z,100.00
2023-05-15T11:17:05.897Z,100.00
2023-05-15T11:19:55.952Z,100.00
2023-05-15T11:22:31.098Z,100.00
2023-05-15T11:25:02.548Z,100.00
2023-05-15T11:27:34.522Z,100.00
2023-05-15T11:30:14.346Z,100.00
2023-05-15T11:33:03.784Z,100.00
2023-05-15T11:35:35.664Z,100.00
2023-05-15T11:38:12.269Z,100.00
2023-05-15T11:40:49.280Z,100.00
2023-05-15T11:43:24.825Z,100.00
2023-05-15T11:45:57.854Z,100.00
2023-05-15T11:48:33.317Z,100.00
2023-05-15T11:51:04.277Z,100.00
2023-05-15T11:53:34.744Z,100.00
2023-05-15T11:56:03.570Z,100.00
2023-05-15T11:58:32.751Z,100.00
2023-05-15T12:01:02.941Z,100.00
2023-05-15T12:03:36.282Z,100.00
2023-05-15T12:06:06.376Z,100.00
2023-05-15T12:08:37.720Z,100.00
2023-05-15T12:11:07.156Z,100.00
2023-05-15T12:13:36.802Z,100.00
2023-05-15T12:16:07.698Z,100.00
2023-05-15T12:18:36.766Z,100.00
2023-05-15T12:21:06.293Z,100.00
2023-05-15T12:23:35.337Z,100.00
2023-05-15T12:26:05.135Z,100.00
2023-05-15T12:28:36.704Z,100.00
2023-05-15T12:31:07.132Z,100.00
2023-05-15T12:33:36.265Z,100.00
2023-05-15T12:36:05.447Z,100.00
2023-05-15T12:38:35.069Z,100.00
2023-05-15T12:41:04.141Z,100.00
2023-05-15T12:43:34.023Z,100.00
2023-05-15T12:46:03.125Z,100.00
2023-05-15T12:48:33.932Z,100.00
2023-05-15T12:51:08.104Z,100.00
2023-05-15T12:53:39.818Z,100.00
2023-05-15T12:56:10.334Z,100.00
2023-05-15T12:58:40.253Z,100.00
2023-05-15T13:01:09.431Z,100.00
2023-05-15T13:03:40.300Z,100.00
2023-05-15T13:06:11.879Z,100.00
2023-05-15T13:08:42.623Z,100.00
2023-05-15T13:11:15.004Z,100.00
2023-05-15T13:13:46.513Z,100.00
2023-05-15T13:16:23.173Z,100.00
2023-05-15T13:18:53.895Z,100.00
2023-05-15T13:21:22.669Z,100.00
2023-05-15T13:23:52.754Z,100.00
2023-05-15T13:26:21.834Z,100.00
2023-05-15T13:28:50.790Z,100.00
2023-05-15T13:31:19.712Z,100.00
2023-05-15T13:33:49.094Z,100.00
2023-05-15T13:36:19.198Z,100.00
2023-05-15T13:38:48.177Z,100.00
2023-05-15T13:41:17.026Z,100.00
2023-05-15T13:43:47.935Z,100.00
2023-05-15T13:46:16.825Z,100.00
2023-05-15T13:48:45.812Z,100.00
2023-05-15T13:51:14.556Z,100.00
2023-05-15T13:53:44.968Z,100.00
2023-05-15T13:56:14.022Z,100.00
2023-05-15T13:58:43.040Z,100.00
2023-05-15T14:01:12.170Z,100.00
2023-05-15T14:03:41.203Z,100.00
2023-05-15T14:06:10.339Z,100.00
2023-05-15T14:08:39.300Z,100.00
2023-05-15T14:11:09.425Z,100.00
2023-05-15T14:13:38.494Z,100.00
2023-05-15T14:16:08.297Z,100.00
2023-05-15T14:18:37.400Z,100.00
2023-05-15T14:21:06.149Z,100.00
2023-05-15T14:23:35.197Z,100.00
2023-05-15T14:26:04.337Z,100.00
2023-05-15T14:28:34.871Z,100.00
2023-05-15T14:31:03.587Z,100.00
2023-05-15T14:33:32.508Z,100.00
2023-05-15T14:36:01.624Z,100.00
2023-05-15T14:38:31.034Z,100.00
2023-05-15T14:40:59.812Z,100.00
2023-05-15T14:43:29.459Z,100.00
2023-05-15T14:45:59.535Z,100.00
2023-05-15T14:48:29.996Z,100.00
2023-05-15T14:50:59.563Z,100.00
2023-05-15T14:53:28.745Z,100.00
2023-05-15T14:55:58.600Z,100.00
2023-05-15T14:58:27.977Z,100.00
2023-05-15T15:00:56.808Z,100.00
2023-05-15T15:03:28.714Z,100.00
2023-05-15T15:05:58.920Z,100.00
2023-05-15T15:08:27.929Z,100.00
2023-05-15T15:10:56.591Z,100.00
2023-05-15T15:13:26.587Z,100.00
2023-05-15T15:15:55.685Z,100.00
2023-05-15T15:18:26.380Z,100.00
2023-05-15T15:20:55.060Z,100.00
2023-05-15T15:23:24.252Z,100.00
2023-05-15T15:25:52.907Z,100.00
2023-05-15T15:28:21.883Z,100.00
2023-05-15T15:30:50.651Z,100.00
2023-05-15T15:33:19.703Z,100.00
2023-05-15T15:35:49.734Z,100.00
2023-05-15T15:38:18.684Z,99.98
2023-05-15T15:40:47.391Z,98.43
2023-05-15T15:43:17.030Z,97.52
2023-05-15T15:45:46.186Z,97.30
2023-05-15T15:48:15.210Z,97.21
2023-05-15T15:50:43.852Z,97.83
2023-05-15T15:53:14.191Z,97.30
2023-05-15T15:55:44.144Z,97.13
2023-05-15T15:58:14.626Z,97.10
2023-05-15T16:00:43.373Z,96.17
2023-05-15T16:03:12.430Z,96.77
2023-05-15T16:05:41.165Z,97.39
2023-05-15T16:08:10.174Z,96.71
2023-05-15T16:10:40.852Z,96.28
2023-05-15T16:13:11.014Z,96.98
2023-05-15T16:15:39.768Z,98.16
2023-05-15T16:18:08.831Z,96.69
2023-05-15T16:20:37.463Z,97.08
2023-05-15T16:23:09.312Z,96.97
2023-05-15T16:25:39.610Z,96.49
2023-05-15T16:28:10.021Z,95.62
2023-05-15T16:30:47.980Z,96.18
2023-05-15T16:33:18.682Z,95.42
2023-05-15T16:35:48.407Z,96.12
2023-05-15T16:38:18.145Z,95.99
2023-05-15T16:40:48.262Z,96.02
2023-05-15T16:43:17.706Z,96.01
2023-05-15T16:45:46.376Z,96.22
2023-05-15T16:48:15.439Z,96.46
2023-05-15T16:50:44.330Z,95.80
2023-05-15T16:53:14.991Z,96.58
2023-05-15T16:55:43.962Z,97.22
2023-05-15T16:58:14.682Z,96.81
2023-05-15T17:00:43.893Z,96.33
2023-05-15T17:03:13.178Z,96.13
2023-05-15T17:05:41.958Z,96.82
2023-05-15T17:08:11.505Z,96.44
2023-05-15T17:10:40.602Z,96.97
2023-05-15T17:13:09.702Z,95.95
2023-05-15T17:15:39.885Z,95.68
2023-05-15T17:18:09.010Z,96.00
2023-05-15T17:20:37.792Z,96.69
2023-05-15T17:23:06.800Z,96.41
2023-05-15T17:25:35.484Z,96.42
2023-05-15T17:28:04.414Z,97.10
2023-05-15T17:30:33.233Z,97.45
2023-05-15T17:33:03.598Z,97.57
2023-05-15T17:35:33.338Z,97.63
2023-05-15T17:38:02.596Z,97.86
2023-05-15T17:40:31.234Z,98.08
2023-05-15T17:43:00.234Z,98.60
2023-05-15T17:45:28.898Z,98.82
2023-05-15T17:48:03.642Z,99.21
2023-05-15T17:50:37.914Z,98.74
2023-05-15T17:53:07.337Z,99.04
2023-05-15T17:55:36.394Z,98.89
2023-05-15T18:11:55.807Z,100.00
2023-05-15T18:14:24.861Z,100.00
2023-05-15T18:16:53.737Z,100.00
2023-05-15T18:19:22.891Z,100.00
2023-05-15T18:21:52.733Z,100.00
2023-05-15T18:24:21.815Z,100.00
2023-05-15T18:26:50.609Z,100.00
2023-05-15T18:29:20.917Z,100.00
2023-05-15T18:31:49.738Z,100.00
2023-05-15T18:34:18.792Z,100.00
2023-05-15T18:36:48.863Z,100.00
2023-05-15T18:39:17.802Z,100.00
2023-05-15T18:41:46.609Z,100.00
2023-05-15T18:44:15.723Z,100.00
2023-05-15T18:46:45.810Z,100.00
2023-05-15T18:49:17.326Z,100.00
2023-05-15T18:51:46.226Z,100.00
2023-05-15T18:54:15.270Z,100.00
2023-05-15T18:56:43.994Z,100.00
2023-05-15T18:59:13.066Z,100.00
2023-05-15T19:01:41.829Z,100.00
2023-05-15T19:04:12.204Z,100.00
2023-05-15T19:06:42.827Z,100.00
2023-05-15T19:09:11.909Z,100.00
2023-05-15T19:11:40.643Z,100.00
2023-05-15T19:14:10.825Z,100.00
2023-05-15T19:16:39.580Z,100.00
2023-05-15T19:19:08.755Z,100.00
2023-05-15T19:21:39.586Z,100.00
2023-05-15T19:24:09.300Z,100.00
2023-05-15T19:26:37.966Z,100.00
2023-05-15T19:29:06.954Z,100.00
2023-05-15T19:31:36.608Z,100.00
2023-05-15T19:34:06.181Z,100.00
2023-05-15T19:36:34.981Z,100.00
2023-05-15T19:39:05.575Z,100.00
2023-05-15T19:41:34.497Z,100.00
2023-05-15T19:44:03.493Z,100.00
2023-05-15T19:46:32.233Z,100.00
2023-05-15T19:49:01.367Z,100.00
2023-05-15T19:51:30.229Z,100.00
2023-05-15T19:54:01.872Z,100.00
2023-05-15T19:56:31.952Z,100.00
2023-05-15T19:59:01.440Z,100.00
2023-05-15T20:01:30.205Z,100.00
2023-05-15T20:03:59.337Z,100.00
2023-05-15T20:06:28.361Z,100.00
2023-05-15T20:08:57.325Z,100.00
2023-05-15T20:11:26.127Z,100.00
2023-05-15T20:13:56.539Z,100.00
2023-05-15T20:16:25.360Z,100.00
2023-05-15T20:18:55.324Z,100.00
2023-05-15T20:21:24.214Z,100.00
2023-05-15T20:23:53.187Z,100.00
2023-05-15T20:26:22.428Z,100.00
2023-05-15T20:28:51.438Z,100.00
2023-05-15T20:31:21.604Z,100.00
2023-05-15T20:33:50.879Z,100.00
2023-05-15T20:36:20.233Z,100.00
2023-05-15T20:38:51.846Z,100.00
2023-05-15T20:41:22.942Z,100.00
2023-05-15T20:43:52.297Z,100.00
2023-05-15T20:46:22.566Z,100.00
2023-05-15T20:48:51.647Z,100.00
2023-05-15T20:51:21.831Z,100.00
2023-05-15T20:53:50.836Z,100.00
2023-05-15T20:56:19.749Z,100.00
2023-05-15T20:58:48.797Z,100.00
2023-05-15T21:01:17.483Z,100.00
2023-05-15T21:03:48.104Z,100.00
2023-05-15T21:06:16.874Z,100.00
2023-05-15T21:08:45.899Z,100.00
2023-05-15T21:11:15.075Z,100.00
2023-05-15T21:13:44.176Z,100.00
2023-05-15T21:16:12.881Z,100.00
2023-05-15T21:18:41.965Z,100.00
2023-05-15T21:21:12.260Z,100.00
2023-05-15T21:23:41.254Z,100.00
2023-05-15T21:26:09.986Z,100.00
2023-05-15T21:28:39.126Z,100.00
2023-05-15T21:31:08.450Z,100.00
2023-05-15T21:33:37.985Z,100.00
2023-05-15T21:36:07.329Z,100.00
2023-05-15T21:38:37.836Z,100.00
2023-05-15T21:41:06.782Z,100.00
2023-05-15T21:43:35.986Z,100.00
2023-05-15T21:46:05.089Z,100.00
2023-05-15T21:48:34.114Z,100.00
2023-05-15T21:51:02.848Z,100.00
2023-05-15T21:53:31.825Z,100.00
2023-05-15T21:56:02.966Z,100.00
2023-05-15T21:58:32.339Z,100.00
2023-05-15T22:01:01.080Z,100.00
2023-05-15T22:03:30.164Z,100.00
2023-05-15T22:05:59.016Z,100.00
2023-05-15T22:08:28.122Z,100.00
2023-05-15T22:10:56.860Z,100.00
2023-05-15T22:13:27.401Z,100.00
2023-05-15T22:15:56.190Z,100.00
2023-05-15T22:18:26.205Z,100.00
2023-05-15T22:20:55.308Z,100.00
2023-05-15T22:23:24.663Z,100.00
2023-05-15T22:25:53.303Z,100.00
2023-05-15T22:28:22.312Z,100.00
2023-05-15T22:30:52.427Z,100.00
2023-05-15T22:33:24.128Z,100.00
2023-05-15T22:35:53.288Z,100.00
2023-05-15T22:38:22.556Z,100.00
2023-05-15T22:40:52.718Z,100.00
2023-05-15T22:43:22.507Z,100.00
2023-05-15T22:45:52.774Z,100.00
2023-05-15T22:48:23.106Z,100.00
2023-05-15T22:50:52.558Z,100.00
2023-05-15T22:53:21.521Z,100.00
2023-05-15T22:55:50.579Z,100.00
2023-05-15T22:58:19.512Z,100.00
2023-05-15T23:00:48.223Z,100.00
2023-05-15T23:03:18.610Z,100.00
2023-05-15T23:05:47.444Z,100.00
2023-05-15T23:08:16.452Z,100.00
2023-05-15T23:10:45.083Z,100.00
2023-05-15T23:13:14.087Z,100.00
2023-05-15T23:15:44.201Z,100.00
2023-05-15T23:18:13.322Z,100.00
2023-05-15T23:20:43.404Z,100.00
2023-05-15T23:23:12.556Z,100.00
2023-05-15T23:25:41.173Z,100.00
2023-05-15T23:28:10.151Z,100.00
2023-05-15T23:30:38.828Z,100.00
2023-05-15T23:33:07.875Z,100.00
2023-05-15T23:35:36.591Z,100.00
2023-05-15T23:38:07.033Z,100.00
2023-05-15T23:40:35.857Z,100.00
2023-05-15T23:43:04.815Z,100.00
2023-05-15T23:45:33.657Z,100.00
2023-05-15T23:48:02.630Z,100.00
2023-05-15T23:50:31.506Z,100.00
2023-05-15T23:53:00.593Z,100.00
2023-05-15T23:55:30.877Z,100.00
2023-05-15T23:58:00.000Z,100.00
